Time;durP1;ratioP1;P1;durP2;ratioP2;P2;SDS_P1;SDS_P2;PMS_P1;PMS_P2;Temp;Humidity;BMP_temperature;BMP_pressure;BME280_temperature;BME280_humidity;BME280_pressure;Samples;Min_cycle;Max_cycle;Signal;HPM_P1;HPM_P2
2021/08/29 00:01:17;;;;;;;8.60;5.10;;;15.80;99.90;;;;;;4984413;28;20777;-67
2021/08/29 00:03:42;;;;;;;6.70;5.90;;;15.90;99.90;;;;;;4984686;28;20198;-67
2021/08/29 00:06:08;;;;;;;5.93;5.07;;;15.80;99.90;;;;;;4984192;28;20222;-68
2021/08/29 00:08:34;;;;;;;6.03;5.07;;;15.80;99.90;;;;;;4983882;28;20647;-67
2021/08/29 00:10:59;;;;;;;5.83;4.80;;;15.70;99.90;;;;;;4966528;28;20194;-67
2021/08/29 00:13:26;;;;;;;9.33;5.63;;;15.60;99.90;;;;;;4986237;28;20198;-67
2021/08/29 00:15:51;;;;;;;6.00;5.40;;;15.60;99.90;;;;;;4986057;28;20767;-67
2021/08/29 00:18:17;;;;;;;9.27;5.97;;;15.60;99.90;;;;;;4986196;28;20536;-67
2021/08/29 00:20:44;;;;;;;7.23;5.93;;;15.60;99.90;;;;;;4982761;28;20186;-67
2021/08/29 00:23:10;;;;;;;6.47;5.23;;;15.60;99.90;;;;;;4981954;28;20210;-66
2021/08/29 00:25:35;;;;;;;5.87;5.27;;;15.60;99.90;;;;;;4978732;28;20826;-67
2021/08/29 00:28:01;;;;;;;6.07;5.20;;;15.60;99.90;;;;;;4984706;28;20205;-67
2021/08/29 00:30:27;;;;;;;6.27;5.00;;;15.60;99.90;;;;;;4986099;28;20338;-67
2021/08/29 00:32:53;;;;;;;5.57;5.07;;;15.60;99.90;;;;;;4984229;28;20434;-67
2021/08/29 00:35:18;;;;;;;6.40;5.70;;;15.60;99.90;;;;;;4984762;28;20301;-67
2021/08/29 00:37:44;;;;;;;6.77;6.07;;;15.50;99.90;;;;;;4984007;28;20228;-67
2021/08/29 00:40:10;;;;;;;8.13;4.87;;;15.50;99.90;;;;;;4984813;28;20202;-67
2021/08/29 00:42:36;;;;;;;6.13;5.53;;;15.60;99.90;;;;;;4985368;28;20194;-67
2021/08/29 00:45:02;;;;;;;6.70;5.13;;;15.60;99.90;;;;;;4967335;28;20882;-67
2021/08/29 00:47:31;;;;;;;7.30;5.20;;;15.60;99.90;;;;;;4961851;28;20603;-67
2021/08/29 00:49:57;;;;;;;6.10;5.47;;;15.60;99.90;;;;;;4980660;28;20800;-67
2021/08/29 00:52:22;;;;;;;6.67;5.57;;;15.50;99.90;;;;;;4984868;28;20452;-67
2021/08/29 00:54:48;;;;;;;8.90;5.10;;;15.60;99.90;;;;;;4982545;28;20240;-67
2021/08/29 00:57:14;;;;;;;6.80;6.10;;;15.50;99.90;;;;;;4983232;28;20297;-67
2021/08/29 00:59:40;;;;;;;5.90;5.30;;;15.50;99.90;;;;;;4983428;28;20205;-67
2021/08/29 01:02:11;;;;;;;9.73;5.60;;;15.50;99.90;;;;;;4983848;28;20644;-67
2021/08/29 01:05:01;;;;;;;6.00;5.30;;;15.50;99.90;;;;;;4982377;28;20841;-66
2021/08/29 01:07:50;;;;;;;6.30;5.70;;;15.50;99.90;;;;;;4970613;28;20615;-66
2021/08/29 01:10:20;;;;;;;9.20;5.73;;;15.40;99.90;;;;;;4985236;28;20520;-66
2021/08/29 01:12:50;;;;;;;6.33;5.73;;;15.40;99.90;;;;;;4982582;28;20445;-66
2021/08/29 01:15:17;;;;;;;6.23;5.63;;;15.40;99.90;;;;;;4982089;28;20457;-66
2021/08/29 01:17:46;;;;;;;7.57;6.33;;;15.30;99.90;;;;;;4985145;28;20535;-66
2021/08/29 01:20:30;;;;;;;6.50;5.70;;;15.30;99.90;;;;;;4983509;28;20475;-66
2021/08/29 01:22:58;;;;;;;6.77;5.87;;;15.30;99.90;;;;;;4982882;28;20444;-67
2021/08/29 01:25:32;;;;;;;6.80;5.80;;;15.40;99.90;;;;;;4985376;28;20685;-67
2021/08/29 01:28:13;;;;;;;7.33;5.43;;;15.40;99.90;;;;;;4979025;28;20449;-67
2021/08/29 01:30:39;;;;;;;7.50;6.80;;;15.30;99.90;;;;;;4964587;28;20451;-67
2021/08/29 01:33:07;;;;;;;10.67;6.27;;;15.30;99.90;;;;;;4963863;28;20946;-67
2021/08/29 01:35:34;;;;;;;8.53;6.70;;;15.30;99.90;;;;;;4983723;28;21030;-66
2021/08/29 01:38:02;;;;;;;10.60;7.40;;;15.30;99.90;;;;;;4965998;28;20444;-66
2021/08/29 01:40:28;;;;;;;6.47;5.80;;;15.10;99.90;;;;;;4979267;28;20429;-67
2021/08/29 01:42:54;;;;;;;6.57;5.80;;;15.20;99.90;;;;;;4982269;28;20454;-66
2021/08/29 01:45:20;;;;;;;8.93;6.03;;;15.20;99.90;;;;;;4981776;28;20457;-66
2021/08/29 01:47:46;;;;;;;9.23;6.03;;;15.20;99.90;;;;;;4981734;28;20602;-66
2021/08/29 01:50:13;;;;;;;6.50;5.90;;;15.20;99.90;;;;;;4980347;28;20441;-66
2021/08/29 01:52:39;;;;;;;7.60;5.93;;;15.30;99.90;;;;;;4985446;28;20230;-66
2021/08/29 01:55:05;;;;;;;6.37;5.70;;;15.20;99.90;;;;;;4979003;28;20499;-66
2021/08/29 01:57:31;;;;;;;8.77;6.37;;;15.30;99.90;;;;;;4980942;28;20217;-67
2021/08/29 01:59:57;;;;;;;6.60;5.23;;;15.30;99.90;;;;;;4965843;28;20523;-67
2021/08/29 02:02:23;;;;;;;6.97;5.93;;;15.30;99.90;;;;;;4981594;28;20198;-67
2021/08/29 02:04:49;;;;;;;7.67;6.27;;;15.30;99.90;;;;;;4981164;28;20469;-67
2021/08/29 02:07:26;;;;;;;8.10;7.07;;;15.20;99.90;;;;;;4980337;28;20445;-67
2021/08/29 02:09:58;;;;;;;13.87;8.47;;;15.10;99.90;;;;;;4980827;28;20441;-66
2021/08/29 02:12:24;;;;;;;7.50;6.03;;;15.20;99.90;;;;;;4980014;28;20440;-66
2021/08/29 02:14:57;;;;;;;6.77;6.07;;;15.10;99.90;;;;;;4982599;28;20827;-66
2021/08/29 02:17:25;;;;;;;7.10;6.40;;;15.10;99.90;;;;;;4983635;28;20468;-67
2021/08/29 02:19:53;;;;;;;7.40;6.60;;;15.10;99.90;;;;;;4982777;28;20902;-66
2021/08/29 02:22:20;;;;;;;8.20;6.77;;;15.10;99.90;;;;;;4965679;28;21084;-67
2021/08/29 02:24:46;;;;;;;7.43;6.17;;;15.10;99.90;;;;;;4981190;28;20540;-67
2021/08/29 02:27:11;;;;;;;7.00;6.30;;;15.20;99.90;;;;;;4983185;28;20818;-67
2021/08/29 02:29:38;;;;;;;6.50;5.90;;;15.20;99.90;;;;;;4981514;28;20476;-67
2021/08/29 02:32:05;;;;;;;9.70;6.80;;;15.20;99.90;;;;;;4980060;28;20201;-66
2021/08/29 02:34:30;;;;;;;6.63;5.93;;;15.20;99.90;;;;;;4983049;28;20867;-67
2021/08/29 02:36:57;;;;;;;8.30;6.57;;;15.30;99.90;;;;;;4981158;28;20607;-66
2021/08/29 02:39:26;;;;;;;10.90;6.90;;;15.20;99.90;;;;;;4983091;28;20247;-67
2021/08/29 02:41:53;;;;;;;9.13;7.10;;;15.10;99.90;;;;;;4982207;28;20429;-66
2021/08/29 02:44:21;;;;;;;9.83;7.53;;;15.00;99.90;;;;;;4981303;28;20446;-66
2021/08/29 02:46:50;;;;;;;10.90;8.60;;;14.80;99.90;;;;;;4978547;28;20456;-66
2021/08/29 02:49:21;;;;;;;11.40;8.80;;;14.80;99.90;;;;;;4980426;28;20441;-66
2021/08/29 02:51:50;;;;;;;9.73;8.17;;;14.80;99.90;;;;;;4979331;28;20615;-66
2021/08/29 02:54:16;;;;;;;9.90;7.70;;;14.90;99.90;;;;;;4980750;28;20433;-66
2021/08/29 02:56:43;;;;;;;15.23;9.00;;;15.00;99.90;;;;;;4982879;28;20480;-66
2021/08/29 02:59:09;;;;;;;10.80;8.40;;;15.00;99.90;;;;;;4962825;28;20448;-66
2021/08/29 03:01:35;;;;;;;10.80;8.23;;;15.00;99.90;;;;;;4979997;28;21075;-66
2021/08/29 03:04:01;;;;;;;11.13;9.27;;;15.00;99.90;;;;;;4981721;28;20190;-66
2021/08/29 03:06:27;;;;;;;13.57;10.43;;;14.90;99.90;;;;;;4950247;28;20222;-66
2021/08/29 03:08:53;;;;;;;12.77;9.50;;;15.00;99.90;;;;;;4983196;28;20465;-66
2021/08/29 03:11:20;;;;;;;14.97;11.30;;;15.00;99.90;;;;;;4981033;28;20441;-66
2021/08/29 03:13:47;;;;;;;14.43;11.13;;;14.90;99.90;;;;;;4979466;28;20536;-66
2021/08/29 03:16:13;;;;;;;12.33;10.30;;;15.00;99.90;;;;;;4982792;28;20477;-66
2021/08/29 03:18:39;;;;;;;12.77;9.50;;;15.00;99.90;;;;;;4981859;28;20437;-67
2021/08/29 03:21:05;;;;;;;13.73;10.30;;;15.10;99.90;;;;;;4981484;28;20200;-67
2021/08/29 03:23:31;;;;;;;13.83;10.27;;;15.00;99.90;;;;;;4983077;28;20190;-67
2021/08/29 03:25:57;;;;;;;14.23;10.33;;;14.90;99.90;;;;;;4981718;28;20226;-67
2021/08/29 03:28:23;;;;;;;14.40;10.23;;;15.00;99.90;;;;;;4981524;28;20457;-67
2021/08/29 03:30:48;;;;;;;16.33;11.23;;;15.10;99.90;;;;;;4963718;28;20445;-67
2021/08/29 03:33:14;;;;;;;12.77;10.37;;;15.10;99.90;;;;;;4963430;28;20584;-67
2021/08/29 03:35:39;;;;;;;13.20;10.20;;;15.10;99.90;;;;;;4978294;28;20672;-67
2021/08/29 03:38:06;;;;;;;12.77;9.80;;;15.10;99.90;;;;;;4981450;28;20205;-66
2021/08/29 03:40:32;;;;;;;12.90;9.20;;;15.00;99.90;;;;;;4980452;28;20552;-66
2021/08/29 03:42:58;;;;;;;14.40;9.53;;;15.00;99.90;;;;;;4967411;28;20455;-66
2021/08/29 03:45:24;;;;;;;12.30;9.20;;;15.00;99.90;;;;;;4983357;28;20979;-66
2021/08/29 03:47:50;;;;;;;12.63;10.40;;;15.10;99.90;;;;;;4985220;28;20205;-67
2021/08/29 03:50:16;;;;;;;11.20;9.17;;;15.00;99.90;;;;;;4961563;28;20523;-66
2021/08/29 03:52:42;;;;;;;9.93;8.57;;;15.00;99.90;;;;;;4984337;28;20539;-66
2021/08/29 03:55:08;;;;;;;12.10;9.70;;;15.00;99.90;;;;;;4968662;28;21059;-66
2021/08/29 03:57:36;;;;;;;11.70;8.97;;;15.10;99.90;;;;;;4982649;28;20214;-66
2021/08/29 04:00:02;;;;;;;11.27;8.70;;;15.20;99.90;;;;;;4967405;28;20531;-66
2021/08/29 04:02:27;;;;;;;13.63;8.70;;;15.20;99.90;;;;;;4984086;28;20960;-67
2021/08/29 04:04:53;;;;;;;9.33;8.27;;;15.30;99.90;;;;;;4983213;28;20473;-67
2021/08/29 04:07:19;;;;;;;11.13;9.37;;;15.30;99.90;;;;;;4982954;28;20209;-66
2021/08/29 04:09:48;;;;;;;10.10;8.60;;;15.20;99.90;;;;;;4987597;28;20186;-67
2021/08/29 04:12:15;;;;;;;10.17;8.40;;;15.30;99.90;;;;;;4968898;28;20535;-66
2021/08/29 04:14:41;;;;;;;8.07;6.90;;;15.30;99.90;;;;;;4979959;28;20452;-67
2021/08/29 04:17:08;;;;;;;10.07;8.20;;;15.30;99.90;;;;;;4984237;28;20469;-67
2021/08/29 04:19:40;;;;;;;8.10;7.13;;;15.30;99.90;;;;;;4982763;28;20456;-66
2021/08/29 04:22:07;;;;;;;8.13;6.87;;;15.30;99.90;;;;;;4985001;28;20442;-67
2021/08/29 04:24:32;;;;;;;8.87;7.50;;;15.30;99.90;;;;;;4968796;28;20465;-67
2021/08/29 04:26:58;;;;;;;7.43;6.60;;;15.30;99.90;;;;;;4981958;28;20451;-67
2021/08/29 04:29:24;;;;;;;9.07;7.93;;;15.30;99.90;;;;;;4982478;28;20574;-66
2021/08/29 04:31:51;;;;;;;8.00;6.50;;;15.30;99.90;;;;;;4982254;28;20202;-66
2021/08/29 04:34:17;;;;;;;7.47;6.70;;;15.30;99.90;;;;;;4984557;28;20893;-67
2021/08/29 04:36:43;;;;;;;7.40;5.87;;;15.40;99.90;;;;;;4983506;28;20476;-66
2021/08/29 04:39:09;;;;;;;6.87;5.70;;;15.30;99.90;;;;;;4982645;28;20216;-67
2021/08/29 04:41:36;;;;;;;6.27;5.67;;;15.40;99.90;;;;;;4984614;28;20936;-67
2021/08/29 04:44:02;;;;;;;8.57;6.83;;;15.50;99.90;;;;;;4983765;28;20331;-67
2021/08/29 04:46:28;;;;;;;6.40;5.47;;;15.60;99.90;;;;;;4983800;28;20607;-66
2021/08/29 04:48:54;;;;;;;6.87;5.90;;;15.60;99.90;;;;;;4985143;28;20440;-67
2021/08/29 04:51:20;;;;;;;7.00;5.97;;;15.50;99.90;;;;;;4985257;28;20451;-66
2021/08/29 04:53:45;;;;;;;6.07;5.50;;;15.60;99.90;;;;;;4981198;28;20947;-67
2021/08/29 04:56:11;;;;;;;7.00;6.30;;;15.50;99.90;;;;;;4982798;28;20843;-66
2021/08/29 04:58:36;;;;;;;7.57;5.87;;;15.40;99.90;;;;;;4981570;28;20552;-67
2021/08/29 05:01:02;;;;;;;7.53;6.13;;;15.40;99.90;;;;;;4982990;28;20197;-66
2021/08/29 05:03:28;;;;;;;6.83;6.00;;;15.40;99.90;;;;;;4982903;28;20221;-66
2021/08/29 05:05:54;;;;;;;7.90;6.60;;;15.30;99.90;;;;;;4983070;28;20226;-66
2021/08/29 05:08:19;;;;;;;8.60;6.77;;;15.20;99.90;;;;;;4983524;28;20193;-67
2021/08/29 05:10:45;;;;;;;8.53;7.00;;;15.20;99.90;;;;;;4983287;28;20292;-65
2021/08/29 05:13:10;;;;;;;7.37;6.70;;;15.30;99.90;;;;;;4982248;28;20197;-68
2021/08/29 05:15:36;;;;;;;8.63;7.27;;;15.30;99.90;;;;;;4983202;28;20206;-67
2021/08/29 05:18:02;;;;;;;9.27;7.50;;;15.30;99.90;;;;;;4983490;28;20197;-66
2021/08/29 05:20:28;;;;;;;8.17;7.30;;;15.30;99.90;;;;;;4980282;28;20202;-66
2021/08/29 05:22:53;;;;;;;10.20;8.40;;;15.30;99.90;;;;;;4979764;28;20548;-66
2021/08/29 05:25:19;;;;;;;8.50;6.70;;;15.20;99.90;;;;;;4984385;28;20225;-66
2021/08/29 05:27:45;;;;;;;8.17;6.60;;;15.30;99.90;;;;;;4981394;28;20193;-65
2021/08/29 05:30:11;;;;;;;9.63;7.20;;;15.30;99.90;;;;;;4983611;28;20217;-67
2021/08/29 05:32:37;;;;;;;8.00;7.20;;;15.20;99.90;;;;;;4984301;28;20194;-67
2021/08/29 05:35:03;;;;;;;7.57;6.30;;;15.30;99.90;;;;;;4981984;28;20449;-67
2021/08/29 05:37:28;;;;;;;8.57;6.87;;;15.30;99.90;;;;;;4981603;28;20221;-66
2021/08/29 05:39:54;;;;;;;7.13;6.43;;;15.30;99.90;;;;;;4982004;28;20955;-66
2021/08/29 05:42:20;;;;;;;6.83;6.13;;;15.40;99.90;;;;;;4982606;28;20229;-66
2021/08/29 05:44:45;;;;;;;10.00;8.33;;;15.50;99.90;;;;;;4981228;28;20293;-66
2021/08/29 05:47:11;;;;;;;7.80;6.53;;;15.70;99.90;;;;;;4982979;28;20634;-66
2021/08/29 05:49:37;;;;;;;6.97;6.20;;;15.80;99.90;;;;;;4979494;28;20206;-66
2021/08/29 05:52:02;;;;;;;8.20;6.23;;;15.80;99.90;;;;;;4981389;28;20289;-66
2021/08/29 05:54:28;;;;;;;7.73;6.40;;;15.90;99.90;;;;;;4981857;28;20228;-66
2021/08/29 05:56:54;;;;;;;6.57;5.97;;;15.90;99.90;;;;;;4979485;28;20476;-66
2021/08/29 05:59:19;;;;;;;7.60;6.77;;;16.00;99.90;;;;;;4980013;28;20209;-66
2021/08/29 06:01:45;;;;;;;7.70;6.83;;;16.00;99.90;;;;;;4981553;28;20235;-66
2021/08/29 06:04:10;;;;;;;7.67;6.93;;;15.90;99.90;;;;;;4979610;28;20181;-66
2021/08/29 06:06:36;;;;;;;9.20;6.60;;;15.90;99.90;;;;;;4982989;28;20213;-66
2021/08/29 06:09:03;;;;;;;8.60;7.17;;;16.00;99.90;;;;;;4979535;28;20281;-66
2021/08/29 06:11:29;;;;;;;6.30;5.67;;;16.00;99.90;;;;;;4978175;28;20434;-66
2021/08/29 06:13:56;;;;;;;5.60;4.20;;;15.70;99.90;;;;;;4984282;28;20461;-66
2021/08/29 06:16:23;;;;;;;4.73;4.00;;;15.80;99.90;;;;;;4979933;28;20281;-66
2021/08/29 06:18:48;;;;;;;4.90;4.00;;;15.80;99.90;;;;;;4966627;28;20445;-66
2021/08/29 06:21:14;;;;;;;4.07;3.67;;;15.90;99.90;;;;;;4982666;28;20529;-67
2021/08/29 06:23:40;;;;;;;4.10;3.60;;;15.90;99.90;;;;;;4983122;28;20194;-67
2021/08/29 06:26:05;;;;;;;3.63;3.23;;;16.00;99.90;;;;;;4980914;28;20224;-67
2021/08/29 06:28:31;;;;;;;4.83;3.93;;;16.10;99.90;;;;;;4981861;28;20212;-67
2021/08/29 06:30:57;;;;;;;4.27;3.77;;;16.20;99.90;;;;;;4980905;28;20228;-66
2021/08/29 06:33:22;;;;;;;2.80;2.57;;;16.30;99.90;;;;;;4981589;28;20186;-67
2021/08/29 06:35:48;;;;;;;3.83;3.43;;;16.40;99.90;;;;;;4980812;28;21015;-67
2021/08/29 06:38:14;;;;;;;4.00;3.07;;;16.50;99.90;;;;;;4960851;28;20194;-67
2021/08/29 06:40:39;;;;;;;2.70;2.50;;;16.50;99.90;;;;;;4981812;28;20196;-67
2021/08/29 06:43:05;;;;;;;6.60;5.87;;;16.70;99.90;;;;;;4964054;28;20189;-66
2021/08/29 06:45:30;;;;;;;5.67;4.20;;;16.50;99.90;;;;;;4978746;28;20205;-67
2021/08/29 06:47:56;;;;;;;4.47;4.07;;;16.60;99.90;;;;;;4980361;28;20214;-67
2021/08/29 06:50:22;;;;;;;3.67;3.37;;;16.80;99.90;;;;;;4980203;28;20671;-67
2021/08/29 06:52:47;;;;;;;14.50;3.97;;;16.50;99.90;;;;;;4981856;28;20210;-67
2021/08/29 06:55:13;;;;;;;5.00;3.60;;;16.50;99.90;;;;;;4981957;28;20237;-67
2021/08/29 06:57:39;;;;;;;4.30;3.90;;;16.60;99.90;;;;;;4980451;28;20209;-67
2021/08/29 07:00:05;;;;;;;4.80;3.30;;;16.50;99.90;;;;;;4980274;28;20198;-67
2021/08/29 07:02:30;;;;;;;3.57;3.20;;;16.60;99.90;;;;;;4980659;28;20206;-67
2021/08/29 07:04:56;;;;;;;4.43;3.20;;;16.60;99.90;;;;;;4979205;28;20475;-67
2021/08/29 07:07:22;;;;;;;4.40;3.40;;;16.60;99.90;;;;;;4981430;28;20619;-67
2021/08/29 07:09:47;;;;;;;2.70;2.47;;;16.60;99.90;;;;;;4977774;28;20202;-67
2021/08/29 07:12:14;;;;;;;3.30;2.73;;;16.70;99.90;;;;;;4976095;28;20202;-66
2021/08/29 07:14:40;;;;;;;2.93;2.67;;;16.60;99.90;;;;;;4979033;28;20216;-67
2021/08/29 07:17:06;;;;;;;3.00;2.70;;;16.70;99.90;;;;;;4978896;28;20466;-67
2021/08/29 07:19:32;;;;;;;3.77;3.13;;;16.80;99.90;;;;;;4983370;28;21017;-66
2021/08/29 07:21:57;;;;;;;3.10;2.80;;;16.70;99.90;;;;;;4984374;28;20217;-66
2021/08/29 07:24:23;;;;;;;3.20;2.90;;;16.70;99.90;;;;;;4983315;28;20224;-66
2021/08/29 07:26:49;;;;;;;3.67;3.37;;;16.70;99.90;;;;;;4987995;28;20760;-66
2021/08/29 07:29:15;;;;;;;5.13;3.00;;;16.90;99.90;;;;;;4984336;28;20209;-66
2021/08/29 07:31:40;;;;;;;3.23;2.93;;;16.90;99.90;;;;;;4985188;28;20440;-66
2021/08/29 07:34:06;;;;;;;4.63;3.57;;;17.00;99.90;;;;;;4986517;28;20649;-67
2021/08/29 07:36:32;;;;;;;4.00;2.97;;;17.00;99.90;;;;;;4986839;28;20244;-66
2021/08/29 07:38:57;;;;;;;4.30;3.50;;;16.90;99.90;;;;;;4969087;28;20280;-66
2021/08/29 07:41:23;;;;;;;4.40;4.00;;;16.80;99.90;;;;;;4984315;28;20212;-66
2021/08/29 07:43:49;;;;;;;5.80;3.50;;;17.00;99.90;;;;;;4986576;28;20190;-65
2021/08/29 07:46:15;;;;;;;4.47;3.47;;;17.20;99.90;;;;;;4950664;28;20300;-66
2021/08/29 07:48:41;;;;;;;8.60;7.80;;;17.20;99.90;;;;;;4985185;28;20194;-66
2021/08/29 07:51:06;;;;;;;5.43;3.90;;;17.20;99.90;;;;;;4987197;28;20436;-66
2021/08/29 07:53:32;;;;;;;3.50;3.20;;;17.00;99.90;;;;;;4980093;28;20195;-66
2021/08/29 07:55:58;;;;;;;4.30;3.10;;;16.90;99.90;;;;;;4985016;28;20233;-66
2021/08/29 07:58:24;;;;;;;4.03;3.63;;;17.00;99.90;;;;;;4982601;28;21744;-66
2021/08/29 08:00:50;;;;;;;3.73;3.30;;;16.90;99.90;;;;;;4985047;28;20190;-66
2021/08/29 08:03:17;;;;;;;4.17;3.17;;;17.10;99.90;;;;;;4985704;28;20429;-66
2021/08/29 08:05:43;;;;;;;5.97;3.33;;;17.00;99.90;;;;;;4982875;28;20284;-66
2021/08/29 08:08:08;;;;;;;3.40;3.10;;;17.00;99.90;;;;;;4983325;28;20480;-66
2021/08/29 08:10:34;;;;;;;2.80;2.60;;;17.00;99.90;;;;;;4965416;28;20186;-66
2021/08/29 08:13:00;;;;;;;2.50;2.30;;;17.20;99.90;;;;;;4983970;28;20197;-66
2021/08/29 08:15:26;;;;;;;4.20;3.00;;;17.20;99.90;;;;;;4984462;28;20643;-66
2021/08/29 08:17:52;;;;;;;3.20;2.90;;;17.20;99.90;;;;;;4981698;28;20512;-67
2021/08/29 08:20:17;;;;;;;2.63;2.30;;;17.30;99.90;;;;;;4985314;28;20185;-66
2021/08/29 08:22:45;;;;;;;2.40;2.17;;;17.40;99.90;;;;;;4984257;28;20571;-66
2021/08/29 08:25:11;;;;;;;2.90;2.70;;;17.40;99.90;;;;;;4981366;28;20206;-66
2021/08/29 08:27:37;;;;;;;3.70;2.60;;;17.30;99.90;;;;;;4985701;28;20440;-67
2021/08/29 08:30:04;;;;;;;2.90;2.60;;;17.40;99.90;;;;;;4982510;28;21886;-66
2021/08/29 08:32:29;;;;;;;3.20;2.90;;;17.40;99.90;;;;;;4986335;28;20568;-66
2021/08/29 08:34:55;;;;;;;3.10;2.33;;;17.50;99.90;;;;;;4979943;28;20460;-66
2021/08/29 08:37:21;;;;;;;2.30;2.10;;;17.60;99.90;;;;;;4982185;28;20224;-66
2021/08/29 08:39:47;;;;;;;2.97;2.20;;;17.50;99.90;;;;;;4980726;28;20433;-66
2021/08/29 08:42:14;;;;;;;2.87;2.30;;;17.50;99.90;;;;;;4968158;28;20224;-65
2021/08/29 08:44:40;;;;;;;3.30;2.47;;;17.50;99.90;;;;;;4984938;28;20316;-66
2021/08/29 08:47:07;;;;;;;2.87;2.50;;;17.50;99.90;;;;;;4982180;28;20869;-66
2021/08/29 08:49:36;;;;;;;3.20;2.80;;;17.70;99.90;;;;;;4965827;28;20273;-66
2021/08/29 08:52:16;;;;;;;5.00;3.83;;;17.70;99.90;;;;;;4978488;28;20571;-66
2021/08/29 08:54:43;;;;;;;2.77;2.53;;;17.90;99.90;;;;;;4979877;28;20864;-66
2021/08/29 08:57:09;;;;;;;3.23;2.43;;;17.90;99.90;;;;;;4984338;28;20528;-66
2021/08/29 08:59:36;;;;;;;2.43;2.23;;;17.90;99.90;;;;;;4981610;28;20450;-66
2021/08/29 09:02:02;;;;;;;4.17;3.77;;;17.80;99.90;;;;;;4960615;28;20751;-66
2021/08/29 09:04:27;;;;;;;2.57;2.37;;;17.90;99.90;;;;;;4985579;28;20858;-67
2021/08/29 09:06:54;;;;;;;3.60;2.87;;;17.80;99.90;;;;;;4984769;28;20869;-66
2021/08/29 09:09:19;;;;;;;3.27;2.83;;;18.00;99.90;;;;;;4985222;28;20240;-66
2021/08/29 09:11:45;;;;;;;3.10;2.80;;;18.10;99.90;;;;;;4984541;28;20521;-67
2021/08/29 09:14:11;;;;;;;2.97;2.10;;;18.10;99.90;;;;;;4982952;28;20186;-66
2021/08/29 09:16:37;;;;;;;3.40;2.47;;;18.10;99.90;;;;;;4984070;28;20536;-67
2021/08/29 09:19:04;;;;;;;2.70;2.50;;;18.30;99.90;;;;;;4984274;28;20570;-66
2021/08/29 09:21:32;;;;;;;2.70;2.47;;;18.40;99.90;;;;;;4984190;28;20198;-66
2021/08/29 09:24:01;;;;;;;2.43;2.23;;;18.50;99.90;;;;;;4981456;28;20485;-66
2021/08/29 09:26:28;;;;;;;2.47;2.20;;;18.60;99.90;;;;;;4982686;28;20582;-66
2021/08/29 09:28:56;;;;;;;2.27;2.07;;;18.50;99.90;;;;;;4983578;28;20441;-66
2021/08/29 09:31:22;;;;;;;2.30;2.10;;;18.50;99.90;;;;;;4983259;28;20429;-66
2021/08/29 09:34:01;;;;;;;2.50;2.30;;;18.60;99.90;;;;;;4985081;28;20646;-66
2021/08/29 09:36:32;;;;;;;2.97;2.70;;;18.40;99.90;;;;;;4985633;28;20213;-66
2021/08/29 09:39:10;;;;;;;3.03;2.73;;;18.40;99.90;;;;;;4983993;28;20498;-66
2021/08/29 09:41:37;;;;;;;4.47;3.07;;;18.50;99.90;;;;;;4984124;28;20436;-66
2021/08/29 09:44:09;;;;;;;3.00;2.70;;;18.60;99.90;;;;;;4980816;28;20982;-65
2021/08/29 09:46:47;;;;;;;3.30;3.00;;;18.60;99.90;;;;;;4985784;28;20464;-65
2021/08/29 09:49:31;;;;;;;2.73;2.53;;;18.80;99.90;;;;;;4984500;28;20430;-66
2021/08/29 09:52:00;;;;;;;3.37;3.07;;;18.70;99.90;;;;;;4982979;28;20443;-66
2021/08/29 09:54:40;;;;;;;3.10;2.80;;;18.50;99.90;;;;;;4983222;28;20805;-66
2021/08/29 09:57:12;;;;;;;3.17;2.87;;;18.30;99.90;;;;;;4982774;28;20512;-66
2021/08/29 09:59:47;;;;;;;2.77;2.57;;;18.50;99.90;;;;;;4984293;28;20513;-66
2021/08/29 10:02:19;;;;;;;2.77;2.53;;;18.20;99.90;;;;;;4980930;28;20926;-66
2021/08/29 10:04:45;;;;;;;3.20;2.90;;;18.30;99.90;;;;;;4984888;28;20496;-66
2021/08/29 10:07:18;;;;;;;3.30;3.00;;;18.20;99.90;;;;;;4984779;28;20445;-66
2021/08/29 10:09:47;;;;;;;3.10;2.80;;;18.20;99.90;;;;;;4982661;28;20452;-66
2021/08/29 10:12:14;;;;;;;4.70;3.43;;;18.20;99.90;;;;;;4985277;28;20448;-66
2021/08/29 10:14:41;;;;;;;3.53;2.80;;;18.20;99.90;;;;;;4979667;28;20476;-66
2021/08/29 10:17:08;;;;;;;3.47;3.10;;;18.10;99.90;;;;;;4979714;28;20479;-66
2021/08/29 10:19:35;;;;;;;3.23;2.93;;;17.90;99.90;;;;;;4971273;28;20926;-65
2021/08/29 10:22:02;;;;;;;4.40;3.27;;;17.80;99.90;;;;;;4981851;28;20492;-66
2021/08/29 10:24:31;;;;;;;3.40;3.03;;;17.80;99.90;;;;;;4984711;28;20532;-66
2021/08/29 10:27:12;;;;;;;3.13;2.87;;;17.80;99.90;;;;;;4983141;28;21148;-66
2021/08/29 10:29:49;;;;;;;3.40;3.10;;;18.00;99.90;;;;;;4980276;28;20508;-66
2021/08/29 10:32:34;;;;;;;6.27;5.70;;;18.10;99.90;;;;;;4981869;28;20507;-66
2021/08/29 10:35:07;;;;;;;3.97;3.57;;;18.10;99.90;;;;;;4982856;28;20452;-66
2021/08/29 10:37:37;;;;;;;3.93;3.53;;;17.90;99.90;;;;;;4983599;28;20530;-66
2021/08/29 10:40:08;;;;;;;4.60;4.20;;;17.90;99.90;;;;;;4983203;28;20451;-65
2021/08/29 10:42:41;;;;;;;4.20;3.80;;;17.90;99.90;;;;;;4982437;28;20478;-66
2021/08/29 10:45:08;;;;;;;4.30;3.90;;;17.70;99.90;;;;;;4979166;28;20872;-65
2021/08/29 10:47:34;;;;;;;5.37;3.70;;;17.50;99.90;;;;;;4983041;28;20447;-66
2021/08/29 10:50:03;;;;;;;5.50;4.27;;;17.50;99.90;;;;;;4980965;28;20823;-64
2021/08/29 10:52:30;;;;;;;5.00;4.53;;;17.70;99.90;;;;;;4983712;28;20449;-65
2021/08/29 10:55:05;;;;;;;4.70;4.30;;;17.70;99.90;;;;;;4984471;28;20579;-65
2021/08/29 10:57:44;;;;;;;4.10;3.70;;;17.60;99.90;;;;;;4984765;28;20519;-65
2021/08/29 11:00:16;;;;;;;4.57;4.13;;;17.70;99.90;;;;;;4986606;28;20434;-65
2021/08/29 11:02:45;;;;;;;4.40;4.00;;;17.90;99.90;;;;;;4984412;28;20433;-65
2021/08/29 11:05:36;;;;;;;4.57;4.10;;;17.70;99.90;;;;;;4984158;28;20824;-65
2021/08/29 11:08:20;;;;;;;4.93;4.43;;;17.60;99.90;;;;;;4974143;28;20433;-65
2021/08/29 11:10:47;;;;;;;6.03;5.07;;;17.30;99.90;;;;;;4986122;28;20444;-65
2021/08/29 11:13:28;;;;;;;4.97;4.43;;;17.00;99.90;;;;;;4983803;28;21090;-65
2021/08/29 11:16:12;;;;;;;4.40;3.90;;;17.00;99.90;;;;;;4982625;28;20464;-65
2021/08/29 11:18:59;;;;;;;6.30;4.63;;;16.90;99.90;;;;;;4984092;28;20437;-65
2021/08/29 11:21:45;;;;;;;5.03;4.53;;;17.00;99.90;;;;;;4985103;28;20752;-65
2021/08/29 11:24:10;;;;;;;6.20;5.10;;;17.10;99.90;;;;;;4984065;28;20436;-65
2021/08/29 11:26:42;;;;;;;5.20;4.70;;;17.30;99.90;;;;;;4984929;28;20970;-65
2021/08/29 11:29:39;;;;;;;5.80;4.70;;;17.30;99.90;;;;;;4990712;28;20232;-65
2021/08/29 11:32:06;;;;;;;7.37;4.77;;;17.30;99.90;;;;;;5003393;28;20526;-65
2021/08/29 11:34:31;;;;;;;6.30;5.37;;;17.20;99.90;;;;;;5001712;28;20887;-65
2021/08/29 11:36:57;;;;;;;5.17;4.67;;;17.10;99.90;;;;;;5000758;28;20571;-65
2021/08/29 11:39:37;;;;;;;5.93;5.13;;;17.20;99.90;;;;;;5003180;28;20197;-65
2021/08/29 11:42:19;;;;;;;6.27;5.30;;;17.30;99.90;;;;;;5005341;28;20472;-65
2021/08/29 11:44:45;;;;;;;7.13;5.13;;;17.40;99.90;;;;;;5005000;28;20463;-65
2021/08/29 11:47:12;;;;;;;6.57;5.87;;;17.30;99.90;;;;;;5003659;28;20445;-64
2021/08/29 11:49:38;;;;;;;6.43;5.80;;;17.30;99.90;;;;;;5003205;28;20440;-65
2021/08/29 11:52:05;;;;;;;9.77;6.30;;;17.40;99.90;;;;;;5000520;28;20451;-64
2021/08/29 11:54:31;;;;;;;7.13;5.93;;;17.30;99.90;;;;;;5000747;28;20436;-64
2021/08/29 11:56:56;;;;;;;7.17;5.60;;;17.40;99.90;;;;;;5004697;28;21034;-64
2021/08/29 11:59:29;;;;;;;7.20;5.90;;;17.40;99.90;;;;;;5001132;28;20189;-64
2021/08/29 12:01:56;;;;;;;6.13;5.50;;;17.50;99.90;;;;;;5006569;28;20197;-65
2021/08/29 12:04:22;;;;;;;6.93;6.10;;;17.40;99.90;;;;;;5004845;28;20452;-65
2021/08/29 12:06:57;;;;;;;7.33;6.10;;;17.50;99.90;;;;;;5000208;28;20542;-65
2021/08/29 12:09:47;;;;;;;7.63;6.10;;;17.50;99.90;;;;;;5002881;28;20487;-65
2021/08/29 12:12:17;;;;;;;5.77;5.17;;;17.60;99.90;;;;;;5005436;28;20448;-65
2021/08/29 12:14:45;;;;;;;7.60;6.03;;;17.60;99.90;;;;;;4987355;28;20457;-65
2021/08/29 12:17:12;;;;;;;7.47;6.63;;;17.60;99.90;;;;;;5001888;28;20475;-65
2021/08/29 12:19:40;;;;;;;8.20;6.80;;;17.70;99.90;;;;;;5007547;28;20732;-65
2021/08/29 12:22:08;;;;;;;12.27;7.03;;;17.70;99.90;;;;;;5000303;28;20434;-65
2021/08/29 12:24:37;;;;;;;8.23;6.33;;;17.50;99.90;;;;;;4997926;28;20432;-65
2021/08/29 12:27:15;;;;;;;10.23;6.17;;;17.60;99.90;;;;;;5005307;28;20483;-65
2021/08/29 12:29:52;;;;;;;8.23;6.13;;;17.40;99.90;;;;;;4997381;28;20436;-66
2021/08/29 12:32:29;;;;;;;7.90;6.43;;;17.40;99.90;;;;;;5001411;28;20469;-65
2021/08/29 12:35:04;;;;;;;8.00;6.90;;;17.50;99.90;;;;;;5003061;28;20463;-65
2021/08/29 12:37:32;;;;;;;7.43;6.43;;;17.60;99.90;;;;;;5004800;28;20879;-65
2021/08/29 12:40:12;;;;;;;7.40;6.40;;;17.40;99.90;;;;;;5002747;28;20443;-65
2021/08/29 12:42:43;;;;;;;7.43;6.63;;;17.50;99.90;;;;;;5005883;28;20436;-65
2021/08/29 12:45:11;;;;;;;9.93;7.53;;;17.30;99.90;;;;;;5004439;28;20457;-65
2021/08/29 12:47:39;;;;;;;7.87;7.03;;;17.20;99.90;;;;;;5003923;28;20460;-65
2021/08/29 12:50:07;;;;;;;7.80;7.00;;;17.30;99.90;;;;;;5006114;28;20938;-65